Terminal Aerodrome Forecast
Issued by NWS

Home | Current Version | Previous Version | Text Only | Print | Product List | Glossary On
Versions: 1 2 3 4 5 6 7 8 9 10 11 12 13 14 15
390
FTUS41 KPBZ 220201 AAA
TAFFKL
TAF AMD
KFKL 220201Z 2202/2224 VRB05KT P6SM OVC080
      TEMPO 2202/2206 -SHRA
     FM220900 VRB03KT 5SM BR BKN100
     FM221400 10008KT P6SM BKN070
      AMD NOT SKED=

USA.gov is the U.S. government's official web portal to all federal, state and local government web resources and services.